Time;durP1;ratioP1;P1;durP2;ratioP2;P2;SDS_P1;SDS_P2;PMS_P1;PMS_P2;Temp;Humidity;BMP_temperature;BMP_pressure;BME280_temperature;BME280_humidity;BME280_pressure;Samples;Min_cycle;Max_cycle;Signal;HPM_P1;HPM_P2
2020/12/11 00:01:35;;;;;;;30.82;18.27;;;;;;;0.51;87.36;101030.67;1766708;80;21781;-74
2020/12/11 00:04:03;;;;;;;26.33;16.00;;;;;;;0.55;87.38;101031.94;1765640;79;21639;-74
2020/12/11 00:06:31;;;;;;;31.82;18.87;;;;;;;0.56;87.36;101033.09;1763194;79;21104;-74
2020/12/11 00:08:59;;;;;;;29.52;17.75;;;;;;;0.55;87.31;101036.69;1754047;80;21584;-74
2020/12/11 00:11:28;;;;;;;26.60;16.02;;;;;;;0.55;87.33;101034.06;1727306;82;21168;-73
2020/12/11 00:13:57;;;;;;;27.82;15.08;;;;;;;0.55;87.30;101035.38;1722453;82;21337;-73
2020/12/11 00:16:25;;;;;;;24.52;14.58;;;;;;;0.56;87.29;101033.09;1726055;81;21163;-73
2020/12/11 00:18:53;;;;;;;27.37;16.25;;;;;;;0.56;87.30;101032.25;1746430;80;21180;-73
2020/12/11 00:21:21;;;;;;;26.62;15.68;;;;;;;0.56;87.27;101025.67;1732580;81;21180;-74
2020/12/11 00:23:49;;;;;;;27.98;15.58;;;;;;;0.53;87.28;101026.87;1689403;83;21192;-74
2020/12/11 00:26:18;;;;;;;22.60;13.43;;;;;;;0.56;87.25;101028.30;1722348;82;21380;-74
2020/12/11 00:28:46;;;;;;;23.12;13.45;;;;;;;0.56;87.23;101031.78;1689167;84;21207;-74
2020/12/11 00:31:14;;;;;;;30.37;17.85;;;;;;;0.52;87.20;101029.16;1729460;82;21188;-74
2020/12/11 00:33:42;;;;;;;26.80;16.10;;;;;;;0.49;87.22;101032.15;1681187;83;21173;-74
2020/12/11 00:36:12;;;;;;;22.10;13.38;;;;;;;0.52;87.24;101030.48;1727832;82;21155;-75
2020/12/11 00:38:40;;;;;;;22.80;14.20;;;;;;;0.55;87.20;101023.55;1687210;83;21875;-74
2020/12/11 00:41:08;;;;;;;26.80;15.90;;;;;;;0.55;87.20;101025.37;1735277;81;21172;-74
2020/12/11 00:43:37;;;;;;;25.52;15.50;;;;;;;0.49;87.16;101025.58;1733015;81;21188;-75
2020/12/11 00:46:05;;;;;;;24.95;13.98;;;;;;;0.51;87.18;101026.23;1726142;81;21666;-74
2020/12/11 00:48:33;;;;;;;26.33;15.63;;;;;;;0.51;87.19;101022.28;1725421;81;21626;-74
2020/12/11 00:51:01;;;;;;;29.30;16.65;;;;;;;0.52;87.17;101016.02;1692586;83;21349;-75
2020/12/11 00:53:30;;;;;;;25.88;15.45;;;;;;;0.52;87.17;101017.34;1720182;81;21692;-74
2020/12/11 00:55:58;;;;;;;24.52;12.95;;;;;;;0.56;87.18;101018.63;1727537;81;21193;-74
2020/12/11 00:58:26;;;;;;;19.23;11.78;;;;;;;0.58;87.16;101014.50;1732494;81;21199;-74
2020/12/11 01:00:54;;;;;;;23.92;15.08;;;;;;;0.62;87.15;101011.81;1726885;81;21160;-74
2020/12/11 01:03:22;;;;;;;28.27;15.72;;;;;;;0.61;87.09;101011.52;1734020;82;21797;-75
2020/12/11 01:05:50;;;;;;;23.42;13.50;;;;;;;0.60;87.05;101010.70;1729885;81;21212;-74
2020/12/11 01:08:18;;;;;;;23.52;14.68;;;;;;;0.63;87.03;101017.41;1726445;81;21596;-76
2020/12/11 01:10:48;;;;;;;21.57;13.38;;;;;;;0.63;87.00;101016.91;1735858;82;21140;-75
2020/12/11 01:13:16;;;;;;;22.87;14.65;;;;;;;0.64;86.98;101017.72;1733548;81;21207;-74
2020/12/11 01:15:44;;;;;;;21.45;12.30;;;;;;;0.62;86.98;101009.19;1733609;82;21085;-75
2020/12/11 01:18:13;;;;;;;21.62;13.53;;;;;;;0.63;86.98;101013.47;1735677;81;21091;-73
2020/12/11 01:20:41;;;;;;;25.05;14.68;;;;;;;0.63;86.94;101009.03;1700107;82;21235;-75
2020/12/11 01:23:09;;;;;;;22.80;14.35;;;;;;;0.61;86.90;101008.38;1735996;82;21125;-73
2020/12/11 01:25:38;;;;;;;23.50;14.03;;;;;;;0.61;86.92;101014.95;1735503;81;21113;-74
2020/12/11 01:28:07;;;;;;;19.67;11.88;;;;;;;0.59;86.92;101014.80;1735141;81;21809;-75
2020/12/11 01:30:35;;;;;;;21.27;14.03;;;;;;;0.62;86.91;101014.45;1730852;81;21136;-75
2020/12/11 01:33:02;;;;;;;21.82;13.35;;;;;;;0.58;86.88;101011.37;1731643;82;21069;-75
2020/12/11 01:35:30;;;;;;;23.70;14.43;;;;;;;0.56;86.86;101004.65;1735204;81;21230;-74
2020/12/11 01:37:58;;;;;;;24.47;14.25;;;;;;;0.56;86.88;101002.02;1710021;82;21139;-74
2020/12/11 01:40:26;;;;;;;16.30;10.43;;;;;;;0.55;86.83;100999.89;1691726;83;21791;-75
2020/12/11 01:42:54;;;;;;;22.15;13.08;;;;;;;0.56;86.82;101004.18;1705228;82;21088;-75
2020/12/11 01:45:23;;;;;;;20.00;11.63;;;;;;;0.54;86.81;100998.78;1727697;81;21129;-74
2020/12/11 01:47:51;;;;;;;22.67;13.30;;;;;;;0.54;86.81;100998.78;1735881;81;21166;-74
2020/12/11 01:50:19;;;;;;;20.52;12.07;;;;;;;0.53;86.81;100991.39;1729562;81;21123;-74
2020/12/11 01:52:50;;;;;;;21.68;12.33;;;;;;;0.56;86.78;100989.72;1709550;81;21333;-74
2020/12/11 01:55:18;;;;;;;25.17;14.45;;;;;;;0.57;86.76;100990.53;1713832;81;21556;-73
2020/12/11 01:58:02;;;;;;;25.20;14.53;;;;;;;0.51;86.73;100984.17;1735675;81;21323;-75
2020/12/11 02:00:30;;;;;;;20.70;13.03;;;;;;;0.51;86.73;100985.48;1728854;81;21144;-73
2020/12/11 02:03:05;;;;;;;22.30;13.88;;;;;;;0.55;86.76;100981.50;1723239;81;21113;-74
2020/12/11 02:05:48;;;;;;;18.43;11.13;;;;;;;0.63;86.72;100985.87;1827204;76;22754;-73
2020/12/11 02:08:16;;;;;;;19.62;12.07;;;;;;;0.56;86.68;100987.09;1792952;78;21069;-74
2020/12/11 02:10:48;;;;;;;22.48;12.98;;;;;;;0.56;86.61;100982.31;1802825;79;22092;-74
2020/12/11 02:13:16;;;;;;;19.42;11.55;;;;;;;0.52;86.57;100975.28;1786647;79;21571;-73
2020/12/11 02:15:45;;;;;;;20.88;12.63;;;;;;;0.50;86.56;100977.80;1802304;79;21594;-74
2020/12/11 02:18:13;;;;;;;22.82;13.48;;;;;;;0.45;86.60;100980.95;1793266;79;21196;-75
2020/12/11 02:20:40;;;;;;;19.67;12.10;;;;;;;0.44;86.59;100979.33;1794638;79;21113;-74
2020/12/11 02:23:08;;;;;;;20.70;12.47;;;;;;;0.48;86.60;100976.65;1806232;79;21159;-74
2020/12/11 02:25:39;;;;;;;21.90;12.88;;;;;;;0.48;86.56;100977.96;1802417;79;21105;-73
2020/12/11 02:28:06;;;;;;;23.38;13.08;;;;;;;0.48;86.51;100979.28;1812291;79;21196;-74
2020/12/11 02:30:34;;;;;;;16.85;10.58;;;;;;;0.48;86.49;100977.16;1816279;79;21156;-75
2020/12/11 02:33:02;;;;;;;19.73;11.43;;;;;;;0.47;86.38;100976.34;1800027;78;21116;-74
2020/12/11 02:35:30;;;;;;;22.27;12.30;;;;;;;0.45;86.39;100971.25;1791457;79;21422;-73
2020/12/11 02:37:58;;;;;;;20.75;13.03;;;;;;;0.45;86.39;100975.69;1789093;79;21195;-74
2020/12/11 02:40:26;;;;;;;21.07;11.88;;;;;;;0.41;86.35;100980.49;1792466;78;21188;-74
2020/12/11 02:42:54;;;;;;;21.00;11.78;;;;;;;0.43;86.37;100985.59;1804302;78;21124;-75
2020/12/11 02:45:22;;;;;;;20.95;13.22;;;;;;;0.44;86.35;100985.89;1793571;77;21751;-75
2020/12/11 02:47:50;;;;;;;20.05;11.65;;;;;;;0.42;86.32;100987.88;1742525;82;21819;-73
2020/12/11 02:50:18;;;;;;;22.40;12.45;;;;;;;0.42;86.35;100991.81;1754851;81;21081;-74
2020/12/11 02:52:46;;;;;;;18.73;11.05;;;;;;;0.42;86.30;100991.31;1807333;77;21089;-73
2020/12/11 02:55:14;;;;;;;23.65;13.30;;;;;;;0.43;86.31;101003.48;1805310;77;21171;-73
2020/12/11 02:57:43;;;;;;;20.65;12.40;;;;;;;0.44;86.30;101002.98;1821412;77;21136;-74
2020/12/11 03:00:10;;;;;;;18.20;10.40;;;;;;;0.44;86.27;101001.66;1758142;80;21418;-74
2020/12/11 03:02:38;;;;;;;19.73;11.55;;;;;;;0.46;86.25;101000.49;1753573;80;21152;-73
2020/12/11 03:05:06;;;;;;;17.32;10.60;;;;;;;0.46;86.21;101000.49;1807690;77;21100;-73
2020/12/11 03:07:34;;;;;;;19.92;10.88;;;;;;;0.44;86.18;101001.16;1812026;77;21104;-74
2020/12/11 03:10:03;;;;;;;20.70;12.75;;;;;;;0.41;86.17;101000.70;1807760;77;21196;-73
2020/12/11 03:12:31;;;;;;;20.92;11.22;;;;;;;0.38;86.11;101005.00;1805139;77;21366;-73
2020/12/11 03:14:59;;;;;;;18.75;10.80;;;;;;;0.39;86.08;101005.31;1819934;77;21207;-74
2020/12/11 03:17:27;;;;;;;19.45;11.95;;;;;;;0.38;86.08;101002.38;1822490;77;21580;-74
2020/12/11 03:19:54;;;;;;;16.87;10.28;;;;;;;0.35;86.12;100997.47;1814687;77;21167;-74
2020/12/11 03:22:22;;;;;;;16.97;10.98;;;;;;;0.33;86.10;100996.35;1813228;77;21168;-73
2020/12/11 03:24:50;;;;;;;19.82;10.25;;;;;;;0.34;86.08;101005.05;1806271;77;21325;-73
2020/12/11 03:27:18;;;;;;;18.65;10.88;;;;;;;0.33;86.06;100998.14;1808153;77;21615;-73
2020/12/11 03:29:46;;;;;;;21.02;11.38;;;;;;;0.33;86.07;100994.20;1807443;77;21093;-72
2020/12/11 03:32:14;;;;;;;18.17;10.60;;;;;;;0.35;86.07;100986.46;1801301;79;21627;-74
2020/12/11 03:34:43;;;;;;;19.65;10.75;;;;;;;0.36;86.00;100984.17;1803092;77;21089;-73
2020/12/11 03:37:11;;;;;;;18.00;11.18;;;;;;;0.35;85.94;100983.02;1760707;80;21199;-73
2020/12/11 03:39:39;;;;;;;19.67;11.15;;;;;;;0.31;85.88;100986.51;1768745;79;21068;-73
2020/12/11 03:42:07;;;;;;;17.25;10.45;;;;;;;0.30;85.92;100993.27;1741273;80;21156;-74
2020/12/11 03:44:35;;;;;;;18.37;11.28;;;;;;;0.29;85.88;100990.30;1810614;77;21124;-74
2020/12/11 03:47:03;;;;;;;19.40;11.57;;;;;;;0.29;85.89;100999.50;1758688;80;21598;-74
2020/12/11 03:49:31;;;;;;;21.77;11.57;;;;;;;0.26;85.85;100998.54;1763525;80;21929;-73
2020/12/11 03:51:58;;;;;;;19.62;10.63;;;;;;;0.23;85.85;101002.33;1798474;77;21085;-73
2020/12/11 03:54:26;;;;;;;19.50;11.38;;;;;;;0.26;85.88;101003.80;1793412;79;21160;-73
2020/12/11 03:56:54;;;;;;;22.58;11.55;;;;;;;0.25;85.82;101004.80;1804049;77;21116;-73
2020/12/11 03:59:22;;;;;;;17.82;10.55;;;;;;;0.21;85.80;101001.21;1804837;77;21108;-74
2020/12/11 04:01:50;;;;;;;21.27;11.55;;;;;;;0.22;85.76;101012.03;1816490;77;21200;-73
2020/12/11 04:04:18;;;;;;;17.60;9.58;;;;;;;0.19;85.74;101005.81;1804561;77;21056;-73
2020/12/11 04:06:46;;;;;;;19.70;11.55;;;;;;;0.21;85.73;101005.66;1794213;79;21093;-74
2020/12/11 04:09:14;;;;;;;18.85;10.60;;;;;;;0.19;85.67;101003.19;1739892;80;21236;-74
2020/12/11 04:11:42;;;;;;;20.08;11.53;;;;;;;0.17;85.63;101006.51;1770635;79;21156;-73
2020/12/11 04:14:11;;;;;;;21.12;11.33;;;;;;;0.16;85.58;101010.11;1762676;79;21366;-73
2020/12/11 04:16:39;;;;;;;19.27;10.90;;;;;;;0.19;85.56;101011.06;1758042;79;21156;-74
2020/12/11 04:19:09;;;;;;;18.45;10.93;;;;;;;0.17;85.50;101002.56;1806698;77;21624;-73
2020/12/11 04:21:38;;;;;;;23.22;12.45;;;;;;;0.13;85.28;101012.27;1739276;80;21159;-73
2020/12/11 04:24:06;;;;;;;21.30;10.95;;;;;;;0.09;85.24;101013.13;1757569;80;21559;-73
2020/12/11 04:26:34;;;;;;;16.42;9.28;;;;;;;0.10;85.28;101012.16;1757747;80;21369;-73
2020/12/11 04:29:02;;;;;;;20.85;11.75;;;;;;;0.11;85.25;101012.47;1749231;80;21151;-73
2020/12/11 04:31:30;;;;;;;18.87;10.05;;;;;;;0.09;85.17;101013.63;1760023;80;21588;-74
2020/12/11 04:33:58;;;;;;;17.90;10.70;;;;;;;0.08;85.14;101015.94;1815301;77;21073;-72
2020/12/11 04:36:26;;;;;;;19.20;10.25;;;;;;;0.03;85.04;101007.27;1812448;77;21176;-72
2020/12/11 04:38:54;;;;;;;18.92;10.98;;;;;;;0.02;84.92;101016.64;1810995;77;21614;-74
2020/12/11 04:41:22;;;;;;;19.20;10.95;;;;;;;-0.02;84.88;101006.99;1798387;77;21183;-73
2020/12/11 04:43:51;;;;;;;18.80;9.90;;;;;;;-0.05;84.79;101005.53;1775264;77;21223;-71
2020/12/11 04:46:19;;;;;;;17.98;10.00;;;;;;;-0.04;84.74;101010.28;1758609;80;21145;-73
2020/12/11 04:48:47;;;;;;;15.53;9.60;;;;;;;-0.05;84.72;101011.28;1772593;79;21101;-73
2020/12/11 04:51:15;;;;;;;15.55;9.08;;;;;;;-0.06;84.66;101013.59;1743232;80;22402;-73
2020/12/11 04:53:43;;;;;;;19.20;10.98;;;;;;;-0.06;84.61;101011.78;1745123;80;21131;-74
2020/12/11 04:56:12;;;;;;;18.15;9.95;;;;;;;-0.09;84.49;101019.20;1739364;80;21174;-75
2020/12/11 04:58:40;;;;;;;20.62;11.57;;;;;;;-0.16;84.54;101018.27;1764973;79;21485;-73
2020/12/11 05:01:08;;;;;;;18.87;10.65;;;;;;;-0.21;84.55;101022.71;1706811;81;21080;-73
2020/12/11 05:03:36;;;;;;;15.48;9.18;;;;;;;-0.22;84.49;101025.52;1812087;77;21480;-73
2020/12/11 05:06:04;;;;;;;20.68;11.22;;;;;;;-0.26;84.48;101027.19;1799121;77;21702;-74
2020/12/11 05:08:34;;;;;;;18.00;10.13;;;;;;;-0.27;84.46;101033.41;1799871;77;21128;-74
2020/12/11 05:11:01;;;;;;;16.73;9.83;;;;;;;-0.26;84.33;101035.56;1792561;77;21188;-74
2020/12/11 05:13:29;;;;;;;18.65;10.98;;;;;;;-0.29;84.24;101032.78;1801344;77;21121;-74
2020/12/11 05:16:10;;;;;;;19.27;11.20;;;;;;;-0.35;84.15;101036.09;1795470;79;21379;-74
2020/12/11 05:18:39;;;;;;;17.30;10.85;;;;;;;-0.42;84.10;101040.41;1799759;77;21187;-74
2020/12/11 05:21:22;;;;;;;18.07;10.85;;;;;;;-0.44;84.05;101041.06;1816478;77;21156;-73
2020/12/11 05:24:05;;;;;;;19.82;11.35;;;;;;;-0.46;83.92;101044.38;1806662;77;21623;-72
2020/12/11 05:26:34;;;;;;;;;;;;;;;-0.53;83.73;101042.94;1806055;77;21419;-73
2020/12/11 05:29:03;;;;;;;17.12;9.88;;;;;;;-0.58;83.60;101043.93;1811526;77;21442;-73
2020/12/11 05:31:31;;;;;;;19.70;10.55;;;;;;;-0.63;83.61;101046.73;1795704;79;21112;-72
2020/12/11 05:34:14;;;;;;;20.12;9.85;;;;;;;-0.67;83.63;101050.20;1793370;77;21109;-74
2020/12/11 05:36:52;;;;;;;17.80;10.28;;;;;;;-0.69;83.53;101050.03;1787699;77;21200;-75
2020/12/11 05:39:35;;;;;;;20.90;11.50;;;;;;;-0.74;83.52;101052.69;1819451;77;21686;-73
2020/12/11 05:42:07;;;;;;;16.57;9.65;;;;;;;-0.79;83.45;101054.17;1754426;80;22352;-74
2020/12/11 05:44:38;;;;;;;17.92;10.43;;;;;;;-0.80;83.51;101054.67;1749010;80;21135;-73
2020/12/11 05:47:24;;;;;;;17.35;10.55;;;;;;;-0.80;83.54;101057.30;1810212;77;21093;-73
2020/12/11 05:49:52;;;;;;;19.48;9.78;;;;;;;-0.79;83.64;101060.27;1819395;77;21113;-73
2020/12/11 05:52:23;;;;;;;20.02;11.00;;;;;;;-0.79;83.60;101053.71;1813911;77;21144;-73
2020/12/11 05:54:56;;;;;;;19.55;10.23;;;;;;;-0.83;83.36;101061.56;1800120;77;21080;-73
2020/12/11 05:57:25;;;;;;;18.80;10.10;;;;;;;-0.89;83.33;101064.86;1752767;80;21163;-73
2020/12/11 05:59:53;;;;;;;19.40;10.23;;;;;;;-0.92;83.37;101062.61;1757775;80;21078;-73
2020/12/11 06:02:23;;;;;;;17.30;9.35;;;;;;;-0.94;83.32;101069.81;1812217;77;21128;-73
2020/12/11 06:04:54;;;;;;;19.67;11.22;;;;;;;-0.95;83.33;101072.13;1808679;77;21208;-73
2020/12/11 06:07:25;;;;;;;18.85;10.30;;;;;;;-0.98;83.10;101069.84;1810098;77;22683;-73
2020/12/11 06:09:53;;;;;;;17.82;10.90;;;;;;;-1.03;83.12;101068.20;1809288;77;27205;-73
2020/12/11 06:12:26;;;;;;;17.80;10.32;;;;;;;-1.07;83.09;101066.91;1812139;77;21132;-73
2020/12/11 06:15:11;;;;;;;18.55;10.43;;;;;;;-1.10;83.04;101064.61;1750008;80;21347;-74
2020/12/11 06:17:58;;;;;;;19.67;10.10;;;;;;;-1.13;82.95;101061.83;1752016;80;21078;-74
2020/12/11 06:20:27;;;;;;;16.20;9.65;;;;;;;-1.12;82.96;101068.70;1807191;77;21428;-73
2020/12/11 06:23:29;;;;;;;20.25;10.18;;;;;;;-1.15;82.77;101059.89;1744013;80;21156;-73
2020/12/11 06:26:03;;;;;;;18.55;10.48;;;;;;;-1.19;82.59;101065.93;1754664;80;21613;-73
2020/12/11 06:28:50;;;;;;;18.92;10.90;;;;;;;-1.25;82.63;101073.18;1768709;80;21188;-73
2020/12/11 06:31:22;;;;;;;19.95;10.50;;;;;;;-1.28;82.68;101068.27;1746996;81;21073;-74
2020/12/11 06:33:54;;;;;;;15.30;8.73;;;;;;;-1.29;82.63;101067.11;1748170;80;21404;-73
2020/12/11 06:36:24;;;;;;;17.60;10.28;;;;;;;-1.29;82.74;101067.92;1800283;77;21692;-73
2020/12/11 06:38:57;;;;;;;22.50;11.60;;;;;;;-1.28;82.60;101068.27;1809167;77;21556;-74
2020/12/11 06:41:35;;;;;;;17.75;11.10;;;;;;;-1.29;82.57;101068.42;1797602;78;21152;-73
2020/12/11 06:44:12;;;;;;;18.20;10.98;;;;;;;-1.31;82.45;101069.09;1812521;77;21117;-73
2020/12/11 06:46:40;;;;;;;19.98;10.72;;;;;;;-1.35;82.44;101063.38;1815917;77;21161;-74
2020/12/11 06:49:19;;;;;;;17.70;9.43;;;;;;;-1.33;82.39;101064.50;1753681;80;21156;-74
2020/12/11 06:51:53;;;;;;;16.85;10.13;;;;;;;-1.33;82.25;101069.73;1750271;80;21147;-72
2020/12/11 06:54:27;;;;;;;20.97;10.35;;;;;;;-1.35;82.08;101069.08;1744922;80;21191;-74
2020/12/11 06:56:57;;;;;;;21.15;11.03;;;;;;;-1.37;82.06;101067.13;1823552;77;21102;-72
2020/12/11 06:59:34;;;;;;;21.57;11.15;;;;;;;-1.41;81.80;101064.03;1805273;77;22230;-74
2020/12/11 07:02:10;;;;;;;17.23;9.35;;;;;;;-1.44;81.72;101063.86;1808368;77;21144;-73
2020/12/11 07:04:43;;;;;;;16.77;10.03;;;;;;;-1.50;81.47;101065.02;1797733;77;21196;-73
2020/12/11 07:07:12;;;;;;;17.75;10.60;;;;;;;-1.54;81.50;101063.22;1820567;77;21119;-73
2020/12/11 07:09:48;;;;;;;21.10;10.60;;;;;;;-1.57;81.48;101055.69;1809072;77;21113;-73
2020/12/11 07:12:17;;;;;;;17.42;10.45;;;;;;;-1.60;81.17;101056.52;1808188;77;21571;-74
2020/12/11 07:14:47;;;;;;;16.93;10.13;;;;;;;-1.62;81.16;101057.97;1811964;77;21144;-74
2020/12/11 07:17:29;;;;;;;18.15;10.58;;;;;;;-1.62;81.12;101053.23;1801594;77;21200;-73
2020/12/11 07:19:57;;;;;;;15.70;8.85;;;;;;;-1.63;81.13;101052.41;1760050;80;21152;-74
2020/12/11 07:22:26;;;;;;;21.60;11.73;;;;;;;-1.62;81.04;101050.61;1762999;79;21100;-74
2020/12/11 07:24:54;;;;;;;20.55;11.22;;;;;;;-1.63;81.04;101061.58;1753220;80;22261;-73
2020/12/11 07:27:22;;;;;;;21.30;10.95;;;;;;;-1.63;80.97;101051.60;1767918;79;21195;-73
2020/12/11 07:29:51;;;;;;;20.80;11.35;;;;;;;-1.63;81.00;101052.91;1813977;79;21077;-74
2020/12/11 07:32:21;;;;;;;12.43;7.12;;;;;;;-1.64;81.08;101044.23;1808301;78;21049;-74
2020/12/11 07:34:49;;;;;;;18.77;10.85;;;;;;;-1.62;81.07;101044.88;1799976;77;21192;-73
2020/12/11 07:37:20;;;;;;;16.75;9.80;;;;;;;-1.61;80.95;101049.62;1791561;77;21017;-74
2020/12/11 07:39:48;;;;;;;16.73;9.80;;;;;;;-1.62;81.00;101044.06;1808579;79;21069;-73
2020/12/11 07:42:20;;;;;;;18.27;10.35;;;;;;;-1.60;81.10;101051.27;1816228;79;21097;-74
2020/12/11 07:44:48;;;;;;;19.82;11.12;;;;;;;-1.59;81.24;101038.00;1799408;78;21768;-74
2020/12/11 07:47:16;;;;;;;20.32;11.85;;;;;;;-1.53;81.42;101041.27;1801254;78;21160;-73
2020/12/11 07:49:46;;;;;;;18.48;10.10;;;;;;;-1.48;81.44;101043.38;1784859;79;21361;-73
2020/12/11 07:52:22;;;;;;;18.05;10.15;;;;;;;-1.44;81.32;101038.97;1789599;79;21140;-74
2020/12/11 07:54:45;;;;;;;18.92;9.70;;;;;;;-1.45;81.01;101040.43;1796783;79;21659;-74
2020/12/11 07:57:18;;;;;;;20.17;10.68;;;;;;;-1.47;80.79;101045.85;1747904;79;21183;-74
2020/12/11 08:00:06;;;;;;;21.23;11.48;;;;;;;-1.50;80.56;101042.75;1723270;81;21084;-73
2020/12/11 08:02:35;;;;;;;19.82;10.70;;;;;;;-1.56;80.25;101042.09;1735670;81;21204;-73
2020/12/11 08:05:07;;;;;;;19.32;10.60;;;;;;;-1.63;80.16;101043.25;1738444;81;21271;-75
2020/12/11 08:07:35;;;;;;;20.25;10.75;;;;;;;-1.63;80.24;101039.81;1737989;81;21185;-75
2020/12/11 08:10:13;;;;;;;18.95;11.28;;;;;;;-1.62;80.23;101036.20;1733040;81;21176;-72
2020/12/11 08:12:42;;;;;;;18.90;10.98;;;;;;;-1.66;80.15;101044.39;1735944;81;21061;-74
2020/12/11 08:15:11;;;;;;;20.10;11.65;;;;;;;-1.62;80.41;101049.30;1799912;79;21330;-74
2020/12/11 08:17:41;;;;;;;17.62;10.20;;;;;;;-1.56;80.26;101046.03;1789129;79;21529;-73
2020/12/11 08:20:09;;;;;;;18.92;10.88;;;;;;;-1.52;80.22;101052.56;1805231;77;21100;-74
2020/12/11 08:22:40;;;;;;;15.88;10.45;;;;;;;-1.48;80.01;101049.93;1805400;79;21049;-75
2020/12/11 08:25:24;;;;;;;23.40;12.13;;;;;;;-1.45;79.97;101044.36;1808370;79;21074;-74
2020/12/11 08:27:52;;;;;;;19.15;10.05;;;;;;;-1.38;79.93;101041.42;1804227;79;21159;-74
2020/12/11 08:30:22;;;;;;;17.12;10.03;;;;;;;-1.33;80.04;101035.17;1804326;77;21132;-75
2020/12/11 08:32:51;;;;;;;21.27;11.60;;;;;;;-1.24;80.07;101035.49;1803627;79;21049;-74
2020/12/11 08:35:22;;;;;;;19.20;10.72;;;;;;;-1.19;79.87;101037.59;1803638;77;21038;-74
2020/12/11 08:37:54;;;;;;;19.42;10.70;;;;;;;-1.12;79.77;101041.67;1785785;79;21160;-75
2020/12/11 08:40:25;;;;;;;15.87;10.17;;;;;;;-1.14;79.22;101037.11;1796566;77;22012;-73
2020/12/11 08:45:59;;;;;;;20.17;11.80;;;;;;;-1.25;78.89;101032.55;1807718;77;21200;-76
2020/12/11 08:48:33;;;;;;;;;;;;;;;-1.30;78.79;101038.78;1808465;77;21176;-74
2020/12/11 08:51:00;;;;;;;17.55;10.25;;;;;;;-1.36;78.80;101035.51;1799655;79;20415;-74
2020/12/11 08:53:29;;;;;;;18.55;10.53;;;;;;;-1.39;78.93;101044.20;1802308;79;21721;-73
2020/12/11 08:55:59;;;;;;;21.48;11.70;;;;;;;-1.44;78.81;101035.54;1811387;77;21073;-74
2020/12/11 08:58:27;;;;;;;17.00;10.20;;;;;;;-1.48;78.87;101036.83;1775350;79;21173;-72
2020/12/11 09:00:54;;;;;;;19.80;10.25;;;;;;;-1.46;78.98;101034.38;1746822;80;21199;-74
2020/12/11 09:03:24;;;;;;;19.90;11.78;;;;;;;-1.42;79.05;101035.67;1801355;77;21683;-73
2020/12/11 09:05:52;;;;;;;18.77;10.90;;;;;;;-1.37;78.84;101047.48;1755002;80;22185;-75
2020/12/11 09:08:19;;;;;;;19.60;11.08;;;;;;;-1.39;78.91;101036.34;1805835;77;21119;-73
2020/12/11 09:10:47;;;;;;;21.00;12.53;;;;;;;-1.40;78.98;101032.91;1819577;77;21494;-73
2020/12/11 09:13:15;;;;;;;22.95;12.82;;;;;;;-1.38;79.10;101026.17;1800838;77;21245;-72
2020/12/11 09:15:43;;;;;;;19.98;11.55;;;;;;;-1.38;79.16;101029.64;1796463;77;21135;-73
2020/12/11 09:18:11;;;;;;;22.70;12.30;;;;;;;-1.35;79.12;101037.16;1766153;80;21862;-73
2020/12/11 09:20:39;;;;;;;17.52;10.55;;;;;;;-1.36;79.09;101025.52;1753136;80;21152;-73
2020/12/11 09:23:08;;;;;;;17.80;11.30;;;;;;;-1.34;79.00;101032.73;1802544;77;21149;-73
2020/12/11 09:25:38;;;;;;;21.50;10.75;;;;;;;-1.39;79.04;101020.12;1794591;79;21351;-74
2020/12/11 09:28:12;;;;;;;21.90;11.22;;;;;;;-1.46;78.95;101011.30;1815385;77;21730;-74
2020/12/11 09:30:37;;;;;;;20.32;11.22;;;;;;;-1.52;78.89;101025.87;1798117;77;21425;-74
2020/12/11 09:33:10;;;;;;;16.73;10.43;;;;;;;-1.53;79.12;101017.69;1791658;79;21195;-74
2020/12/11 09:35:35;;;;;;;21.20;10.93;;;;;;;-1.50;79.16;101015.24;1789264;77;21184;-74
2020/12/11 09:38:03;;;;;;;16.90;10.85;;;;;;;-1.51;79.05;101009.69;1799124;77;21137;-74
2020/12/11 09:40:41;;;;;;;22.17;13.00;;;;;;;-1.52;78.96;101008.03;1794516;79;21401;-73
2020/12/11 09:45:57;;;;;;;19.85;12.43;;;;;;;-1.52;78.85;101003.60;1802207;79;21172;-74
2020/12/11 09:48:33;;;;;;;22.10;12.47;;;;;;;-1.53;78.72;101002.47;1806035;77;21184;-73
2020/12/11 09:56:06;;;;;;;20.82;11.88;;;;;;;-1.64;78.56;101004.14;1739155;82;21172;-71
2020/12/11 09:58:35;;;;;;;23.50;13.28;;;;;;;-1.61;78.80;101006.40;1733300;82;21342;-72
2020/12/11 10:14:57;;;;;;;18.30;10.90;;;;;;;-1.15;77.50;100977.32;1841813;77;22629;-69
2020/12/11 10:17:20;;;;;;;18.20;10.75;;;;;;;-1.27;77.26;100973.42;1810427;79;21155;-69
2020/12/11 10:19:52;;;;;;;16.45;9.53;;;;;;;-1.38;77.42;100968.06;1793853;78;26334;-69
2020/12/11 10:22:20;;;;;;;22.15;11.93;;;;;;;-1.37;77.52;100975.42;1801924;79;21633;-69
2020/12/11 10:24:48;;;;;;;20.50;11.78;;;;;;;-1.36;77.74;100967.88;1803638;79;21142;-69
2020/12/11 10:27:16;;;;;;;18.30;11.65;;;;;;;-1.35;77.75;100967.73;1807740;79;22243;-69
2020/12/11 10:29:47;;;;;;;19.17;11.78;;;;;;;-1.35;77.91;100967.73;1812129;77;21674;-71
2020/12/11 10:32:15;;;;;;;21.07;13.55;;;;;;;-1.34;78.05;100968.54;1791860;79;21190;-70
2020/12/11 10:34:43;;;;;;;17.48;11.10;;;;;;;-1.34;78.16;100969.35;1810031;79;21215;-70
2020/12/11 10:37:13;;;;;;;19.48;12.07;;;;;;;-1.30;78.28;100968.52;1803021;78;21707;-70
2020/12/11 10:39:43;;;;;;;22.02;13.38;;;;;;;-1.33;77.89;100974.91;1793430;78;21167;-70
2020/12/11 10:42:11;;;;;;;19.52;12.30;;;;;;;-1.34;78.02;100964.61;1802713;78;21147;-69
2020/12/11 10:44:39;;;;;;;21.60;12.93;;;;;;;-1.35;77.94;100970.81;1807811;79;21362;-70
2020/12/11 10:47:07;;;;;;;19.05;12.60;;;;;;;-1.35;77.84;100962.95;1796529;79;21183;-70
2020/12/11 10:49:35;;;;;;;22.20;13.15;;;;;;;-1.39;77.71;100959.05;1796111;77;22222;-69
2020/12/11 10:52:03;;;;;;;19.27;13.05;;;;;;;-1.48;77.67;100959.08;1782164;80;21665;-69
2020/12/11 10:54:31;;;;;;;20.45;13.15;;;;;;;-1.53;77.71;100961.38;1802668;77;21171;-70
2020/12/11 10:56:59;;;;;;;21.30;13.35;;;;;;;-1.59;77.76;100959.42;1797209;79;22367;-69
2020/12/11 10:59:27;;;;;;;22.25;13.83;;;;;;;-1.64;77.70;100961.73;1803557;77;21186;-69
2020/12/11 11:01:55;;;;;;;25.60;14.95;;;;;;;-1.67;77.83;100957.64;1792181;77;21111;-70
2020/12/11 11:04:24;;;;;;;22.27;14.10;;;;;;;-1.66;78.01;100960.58;1798285;77;21172;-69
2020/12/11 11:09:40;;;;;;;21.93;12.43;;;;;;;-1.58;78.22;100961.54;1833390;77;22773;-69
2020/12/11 11:20:55;;;;;;;20.72;13.20;;;;;;;-1.89;77.92;100963.56;1820810;78;21101;-70
2020/12/11 11:26:37;;;;;;;20.13;12.63;;;;;;;-2.03;78.34;100959.00;1838807;77;22742;-71
2020/12/11 11:28:33;;;;;;;24.40;14.85;;;;;;;-2.13;78.67;100956.55;1827134;77;21172;-72
2020/12/11 11:31:01;;;;;;;24.50;14.70;;;;;;;-2.18;78.69;100963.56;1815673;77;21932;-70
2020/12/11 11:33:29;;;;;;;24.67;15.28;;;;;;;-2.20;78.93;100960.31;1798621;78;21235;-72
2020/12/11 11:35:56;;;;;;;21.35;13.60;;;;;;;-2.23;79.03;100951.98;1819288;77;21694;-70
2020/12/11 11:38:24;;;;;;;23.15;13.30;;;;;;;-2.29;79.02;100953.44;1819687;78;21183;-71
2020/12/11 11:40:53;;;;;;;23.77;15.28;;;;;;;-2.34;79.29;100960.13;1830712;78;21211;-73
2020/12/11 11:46:08;;;;;;;20.32;12.45;;;;;;;-2.29;79.78;100954.74;1818282;78;21140;-72
2020/12/11 11:48:40;;;;;;;18.20;11.08;;;;;;;-2.26;79.84;100958.34;1834737;78;21653;-72
2020/12/11 11:51:12;;;;;;;19.15;12.45;;;;;;;-2.22;79.90;100964.88;1828585;78;22435;-70
2020/12/11 11:53:35;;;;;;;17.62;10.70;;;;;;;-2.22;79.83;100958.84;1824389;78;21159;-71
2020/12/11 11:56:03;;;;;;;19.92;13.62;;;;;;;-2.26;79.86;100962.27;1825722;78;22306;-71
2020/12/11 11:58:32;;;;;;;21.48;14.43;;;;;;;-2.27;79.98;100960.64;1847793;77;21915;-71
2020/12/11 12:01:00;;;;;;;23.62;14.68;;;;;;;-2.31;80.03;100962.42;1824011;77;21631;-71
2020/12/11 12:03:30;;;;;;;21.17;14.05;;;;;;;-2.35;80.14;100956.70;1829082;77;21134;-73
2020/12/11 12:05:58;;;;;;;21.85;14.47;;;;;;;-2.37;80.34;100954.27;1795420;77;21097;-71
2020/12/11 12:08:26;;;;;;;20.68;13.45;;;;;;;-2.40;80.35;100953.77;1818939;77;21232;-72